sensor_id;sensor_type;location;lat;lon;timestamp;temperature;humidity
16491;DHT22;8356;51.214;3.270;2022-07-06T00:02:13;486.50;2380.80
16491;DHT22;8356;51.214;3.270;2022-07-06T00:04:39;461.70;2380.80
16491;DHT22;8356;51.214;3.270;2022-07-06T00:07:05;461.50;2380.80
16491;DHT22;8356;51.214;3.270;2022-07-06T00:09:31;461.70;2380.80
16491;DHT22;8356;51.214;3.270;2022-07-06T00:11:56;461.70;2380.80
16491;DHT22;8356;51.214;3.270;2022-07-06T00:14:22;486.40;2380.80
16491;DHT22;8356;51.214;3.270;2022-07-06T00:16:48;486.40;2380.80
16491;DHT22;8356;51.214;3.270;2022-07-06T00:19:13;461.70;2380.80
16491;DHT22;8356;51.214;3.270;2022-07-06T00:21:39;461.30;2380.80
16491;DHT22;8356;51.214;3.270;2022-07-06T00:24:05;461.10;2380.80
16491;DHT22;8356;51.214;3.270;2022-07-06T00:26:30;461.10;2380.80
16491;DHT22;8356;51.214;3.270;2022-07-06T00:28:56;461.30;2380.80
16491;DHT22;8356;51.214;3.270;2022-07-06T00:31:22;461.50;2380.80
16491;DHT22;8356;51.214;3.270;2022-07-06T00:33:47;461.50;2380.80
16491;DHT22;8356;51.214;3.270;2022-07-06T00:36:13;461.40;2380.80
16491;DHT22;8356;51.214;3.270;2022-07-06T00:38:39;461.20;2380.80
16491;DHT22;8356;51.214;3.270;2022-07-06T00:41:04;461.40;2380.80
16491;DHT22;8356;51.214;3.270;2022-07-06T00:43:47;461.40;2380.80
16491;DHT22;8356;51.214;3.270;2022-07-06T00:46:12;461.50;2380.80
16491;DHT22;8356;51.214;3.270;2022-07-06T00:48:38;461.50;2380.80
16491;DHT22;8356;51.214;3.270;2022-07-06T00:51:03;461.50;2380.80
16491;DHT22;8356;51.214;3.270;2022-07-06T00:53:29;461.50;2380.80
16491;DHT22;8356;51.214;3.270;2022-07-06T00:55:55;461.50;2380.80
16491;DHT22;8356;51.214;3.270;2022-07-06T00:58:21;461.50;2380.80
16491;DHT22;8356;51.214;3.270;2022-07-06T01:00:47;461.50;2380.80
16491;DHT22;8356;51.214;3.270;2022-07-06T01:03:12;461.50;2380.80
16491;DHT22;8356;51.214;3.270;2022-07-06T01:05:38;461.40;2380.80
16491;DHT22;8356;51.214;3.270;2022-07-06T01:08:04;461.20;2380.80
16491;DHT22;8356;51.214;3.270;2022-07-06T01:10:30;461.00;2380.80
16491;DHT22;8356;51.214;3.270;2022-07-06T01:12:56;460.90;2380.80
16491;DHT22;8356;51.214;3.270;2022-07-06T01:15:24;461.00;2380.80
16491;DHT22;8356;51.214;3.270;2022-07-06T01:17:50;436.10;2355.20
16491;DHT22;8356;51.214;3.270;2022-07-06T01:20:21;435.90;2355.20
16491;DHT22;8356;51.214;3.270;2022-07-06T01:22:49;435.80;2355.20
16491;DHT22;8356;51.214;3.270;2022-07-06T01:25:15;435.90;2355.20
16491;DHT22;8356;51.214;3.270;2022-07-06T01:27:42;436.00;2355.20
16491;DHT22;8356;51.214;3.270;2022-07-06T01:30:13;436.10;2355.20
16491;DHT22;8356;51.214;3.270;2022-07-06T01:32:40;460.80;2380.80
16491;DHT22;8356;51.214;3.270;2022-07-06T01:35:08;461.00;2380.80
16491;DHT22;8356;51.214;3.270;2022-07-06T01:37:34;461.00;2380.80
16491;DHT22;8356;51.214;3.270;2022-07-06T01:40:01;461.00;2380.80
16491;DHT22;8356;51.214;3.270;2022-07-06T01:42:28;461.00;2380.80
16491;DHT22;8356;51.214;3.270;2022-07-06T01:44:54;460.80;2380.80
16491;DHT22;8356;51.214;3.270;2022-07-06T01:47:20;460.80;2380.80
16491;DHT22;8356;51.214;3.270;2022-07-06T01:49:46;435.90;2355.20
16491;DHT22;8356;51.214;3.270;2022-07-06T01:52:11;435.80;2355.20
16491;DHT22;8356;51.214;3.270;2022-07-06T01:54:37;435.60;2355.20
16491;DHT22;8356;51.214;3.270;2022-07-06T01:57:03;435.70;2355.20
16491;DHT22;8356;51.214;3.270;2022-07-06T01:59:29;460.90;2380.80
16491;DHT22;8356;51.214;3.270;2022-07-06T02:01:54;435.80;2355.20
16491;DHT22;8356;51.214;3.270;2022-07-06T02:04:20;435.90;2355.20
16491;DHT22;8356;51.214;3.270;2022-07-06T02:06:45;435.80;2355.20
16491;DHT22;8356;51.214;3.270;2022-07-06T02:09:11;435.80;2355.20
16491;DHT22;8356;51.214;3.270;2022-07-06T02:11:37;435.60;2355.20
16491;DHT22;8356;51.214;3.270;2022-07-06T02:14:02;435.60;2355.20
16491;DHT22;8356;51.214;3.270;2022-07-06T02:16:28;435.50;2355.20
16491;DHT22;8356;51.214;3.270;2022-07-06T02:18:54;435.50;2355.20
16491;DHT22;8356;51.214;3.270;2022-07-06T02:21:19;435.40;2355.20
16491;DHT22;8356;51.214;3.270;2022-07-06T02:23:45;435.40;2355.20
16491;DHT22;8356;51.214;3.270;2022-07-06T02:26:10;435.30;2355.20
16491;DHT22;8356;51.214;3.270;2022-07-06T02:28:36;435.20;2355.20
16491;DHT22;8356;51.214;3.270;2022-07-06T02:31:02;435.20;2355.20
16491;DHT22;8356;51.214;3.270;2022-07-06T02:33:27;435.30;2355.20
16491;DHT22;8356;51.214;3.270;2022-07-06T02:35:53;435.20;2355.20
16491;DHT22;8356;51.214;3.270;2022-07-06T02:38:19;435.40;2355.20
16491;DHT22;8356;51.214;3.270;2022-07-06T02:40:44;435.40;2355.20
16491;DHT22;8356;51.214;3.270;2022-07-06T02:43:10;435.40;2355.20
16491;DHT22;8356;51.214;3.270;2022-07-06T02:45:36;435.40;2355.20
16491;DHT22;8356;51.214;3.270;2022-07-06T02:48:02;435.20;2355.20
16491;DHT22;8356;51.214;3.270;2022-07-06T02:50:28;435.20;2355.20
16491;DHT22;8356;51.214;3.270;2022-07-06T02:52:53;410.50;2355.20
16491;DHT22;8356;51.214;3.270;2022-07-06T02:55:20;435.30;2355.20
16491;DHT22;8356;51.214;3.270;2022-07-06T02:57:46;435.30;2355.20
16491;DHT22;8356;51.214;3.270;2022-07-06T03:00:12;435.30;2355.20
16491;DHT22;8356;51.214;3.270;2022-07-06T03:02:38;410.50;2355.20
16491;DHT22;8356;51.214;3.270;2022-07-06T03:05:04;410.50;2355.20
16491;DHT22;8356;51.214;3.270;2022-07-06T03:07:30;410.50;2355.20
16491;DHT22;8356;51.214;3.270;2022-07-06T03:09:55;410.30;2355.20
16491;DHT22;8356;51.214;3.270;2022-07-06T03:12:21;410.40;2355.20
16491;DHT22;8356;51.214;3.270;2022-07-06T03:14:47;435.20;2355.20
16491;DHT22;8356;51.214;3.270;2022-07-06T03:17:12;410.50;2355.20
16491;DHT22;8356;51.214;3.270;2022-07-06T03:19:38;410.20;2355.20
16491;DHT22;8356;51.214;3.270;2022-07-06T03:22:04;409.90;2355.20
16491;DHT22;8356;51.214;3.270;2022-07-06T03:24:29;410.20;2355.20
16491;DHT22;8356;51.214;3.270;2022-07-06T03:26:55;410.40;2355.20
16491;DHT22;8356;51.214;3.270;2022-07-06T03:29:21;410.50;2355.20
16491;DHT22;8356;51.214;3.270;2022-07-06T03:31:47;410.50;2355.20
16491;DHT22;8356;51.214;3.270;2022-07-06T03:34:12;435.20;2355.20
16491;DHT22;8356;51.214;3.270;2022-07-06T03:36:38;435.20;2355.20
16491;DHT22;8356;51.214;3.270;2022-07-06T03:39:04;435.20;2355.20
16491;DHT22;8356;51.214;3.270;2022-07-06T03:41:30;435.20;2355.20
16491;DHT22;8356;51.214;3.270;2022-07-06T03:43:56;435.30;2355.20
16491;DHT22;8356;51.214;3.270;2022-07-06T03:46:22;435.40;2355.20
16491;DHT22;8356;51.214;3.270;2022-07-06T03:48:47;435.30;2355.20
16491;DHT22;8356;51.214;3.270;2022-07-06T03:51:13;435.40;2355.20
16491;DHT22;8356;51.214;3.270;2022-07-06T03:53:39;435.60;2355.20
16491;DHT22;8356;51.214;3.270;2022-07-06T03:56:04;435.60;2355.20
16491;DHT22;8356;51.214;3.270;2022-07-06T03:58:48;435.60;2355.20
16491;DHT22;8356;51.214;3.270;2022-07-06T04:01:14;435.60;2355.20
16491;DHT22;8356;51.214;3.270;2022-07-06T04:03:40;435.60;2355.20
16491;DHT22;8356;51.214;3.270;2022-07-06T04:06:06;435.50;2355.20
16491;DHT22;8356;51.214;3.270;2022-07-06T04:08:31;435.20;2355.20
16491;DHT22;8356;51.214;3.270;2022-07-06T04:10:57;410.30;2355.20
16491;DHT22;8356;51.214;3.270;2022-07-06T04:13:23;410.10;2355.20
16491;DHT22;8356;51.214;3.270;2022-07-06T04:15:50;410.10;2355.20
16491;DHT22;8356;51.214;3.270;2022-07-06T04:18:16;410.30;2355.20
16491;DHT22;8356;51.214;3.270;2022-07-06T04:20:42;410.50;2355.20
16491;DHT22;8356;51.214;3.270;2022-07-06T04:23:08;410.30;2355.20
16491;DHT22;8356;51.214;3.270;2022-07-06T04:25:34;410.20;2355.20
16491;DHT22;8356;51.214;3.270;2022-07-06T04:27:59;410.30;2355.20
16491;DHT22;8356;51.214;3.270;2022-07-06T04:30:25;410.30;2355.20
16491;DHT22;8356;51.214;3.270;2022-07-06T04:32:51;410.10;2355.20
16491;DHT22;8356;51.214;3.270;2022-07-06T04:35:17;410.30;2355.20
16491;DHT22;8356;51.214;3.270;2022-07-06T04:37:43;410.30;2355.20
16491;DHT22;8356;51.214;3.270;2022-07-06T04:40:11;410.20;2355.20
16491;DHT22;8356;51.214;3.270;2022-07-06T04:42:37;409.90;2355.20
16491;DHT22;8356;51.214;3.270;2022-07-06T04:45:04;409.80;2355.20
16491;DHT22;8356;51.214;3.270;2022-07-06T04:47:30;409.80;2355.20
16491;DHT22;8356;51.214;3.270;2022-07-06T04:49:56;409.80;2355.20
16491;DHT22;8356;51.214;3.270;2022-07-06T04:52:22;409.80;2355.20
16491;DHT22;8356;51.214;3.270;2022-07-06T04:54:48;409.70;2355.20
16491;DHT22;8356;51.214;3.270;2022-07-06T04:57:13;409.70;2355.20
16491;DHT22;8356;51.214;3.270;2022-07-06T04:59:39;409.60;2355.20
16491;DHT22;8356;51.214;3.270;2022-07-06T05:02:05;409.70;2355.20
16491;DHT22;8356;51.214;3.270;2022-07-06T05:04:31;410.00;2355.20
16491;DHT22;8356;51.214;3.270;2022-07-06T05:06:56;410.20;2355.20
16491;DHT22;8356;51.214;3.270;2022-07-06T05:09:22;410.20;2355.20
16491;DHT22;8356;51.214;3.270;2022-07-06T05:11:47;410.10;2355.20
16491;DHT22;8356;51.214;3.270;2022-07-06T05:14:13;410.10;2355.20
16491;DHT22;8356;51.214;3.270;2022-07-06T05:16:39;410.20;2355.20
16491;DHT22;8356;51.214;3.270;2022-07-06T05:19:04;410.30;2355.20
16491;DHT22;8356;51.214;3.270;2022-07-06T05:21:30;410.50;2355.20
16491;DHT22;8356;51.214;3.270;2022-07-06T05:23:56;410.40;2355.20
16491;DHT22;8356;51.214;3.270;2022-07-06T05:26:21;410.30;2355.20
16491;DHT22;8356;51.214;3.270;2022-07-06T05:28:47;410.30;2355.20
16491;DHT22;8356;51.214;3.270;2022-07-06T05:31:13;410.30;2355.20
16491;DHT22;8356;51.214;3.270;2022-07-06T05:33:38;410.50;2355.20
16491;DHT22;8356;51.214;3.270;2022-07-06T05:36:04;435.20;2355.20
16491;DHT22;8356;51.214;3.270;2022-07-06T05:38:30;435.50;2355.20
16491;DHT22;8356;51.214;3.270;2022-07-06T05:40:55;435.60;2355.20
16491;DHT22;8356;51.214;3.270;2022-07-06T05:43:21;435.70;2355.20
16491;DHT22;8356;51.214;3.270;2022-07-06T05:45:47;435.90;2355.20
16491;DHT22;8356;51.214;3.270;2022-07-06T05:48:12;436.00;2355.20
16491;DHT22;8356;51.214;3.270;2022-07-06T05:50:57;436.10;2355.20
16491;DHT22;8356;51.214;3.270;2022-07-06T05:53:23;460.90;2380.80
16491;DHT22;8356;51.214;3.270;2022-07-06T05:55:48;461.00;2380.80
16491;DHT22;8356;51.214;3.270;2022-07-06T05:58:14;461.10;2380.80
16491;DHT22;8356;51.214;3.270;2022-07-06T06:00:40;461.10;2380.80
16491;DHT22;8356;51.214;3.270;2022-07-06T06:03:06;461.10;2380.80
16491;DHT22;8356;51.214;3.270;2022-07-06T06:05:32;461.20;2380.80
16491;DHT22;8356;51.214;3.270;2022-07-06T06:07:57;461.20;2380.80
16491;DHT22;8356;51.214;3.270;2022-07-06T06:10:23;461.20;2380.80
16491;DHT22;8356;51.214;3.270;2022-07-06T06:12:49;461.30;2380.80
16491;DHT22;8356;51.214;3.270;2022-07-06T06:15:15;461.40;2380.80
16491;DHT22;8356;51.214;3.270;2022-07-06T06:17:40;461.50;2380.80
16491;DHT22;8356;51.214;3.270;2022-07-06T06:20:07;461.50;2380.80
16491;DHT22;8356;51.214;3.270;2022-07-06T06:22:56;461.50;2380.80
16491;DHT22;8356;51.214;3.270;2022-07-06T06:25:29;461.60;2380.80
16491;DHT22;8356;51.214;3.270;2022-07-06T06:27:55;461.70;2380.80
16491;DHT22;8356;51.214;3.270;2022-07-06T06:30:21;486.40;2380.80
16491;DHT22;8356;51.214;3.270;2022-07-06T06:32:46;486.50;2380.80
16491;DHT22;8356;51.214;3.270;2022-07-06T06:35:12;486.60;2380.80
16491;DHT22;8356;51.214;3.270;2022-07-06T06:37:38;486.70;2380.80
16491;DHT22;8356;51.214;3.270;2022-07-06T06:40:05;486.70;2380.80
16491;DHT22;8356;51.214;3.270;2022-07-06T06:42:31;486.80;2380.80
16491;DHT22;8356;51.214;3.270;2022-07-06T06:44:57;486.80;2380.80
16491;DHT22;8356;51.214;3.270;2022-07-06T06:47:22;487.00;2380.80
16491;DHT22;8356;51.214;3.270;2022-07-06T06:49:48;487.00;2380.80
16491;DHT22;8356;51.214;3.270;2022-07-06T06:52:14;487.10;2380.80
16491;DHT22;8356;51.214;3.270;2022-07-06T06:54:40;487.10;2380.80
16491;DHT22;8356;51.214;3.270;2022-07-06T06:57:05;487.20;2380.80
16491;DHT22;8356;51.214;3.270;2022-07-06T06:59:31;487.30;2380.80
16491;DHT22;8356;51.214;3.270;2022-07-06T07:01:57;512.00;2380.80
16491;DHT22;8356;51.214;3.270;2022-07-06T07:04:23;512.00;2380.80
16491;DHT22;8356;51.214;3.270;2022-07-06T07:06:48;512.20;2380.80
16491;DHT22;8356;51.214;3.270;2022-07-06T07:09:14;512.20;2380.80
16491;DHT22;8356;51.214;3.270;2022-07-06T07:11:40;512.30;2380.80
16491;DHT22;8356;51.214;3.270;2022-07-06T07:14:05;512.30;2380.80
16491;DHT22;8356;51.214;3.270;2022-07-06T07:16:31;512.30;2380.80
16491;DHT22;8356;51.214;3.270;2022-07-06T07:18:57;512.50;2380.80
16491;DHT22;8356;51.214;3.270;2022-07-06T07:21:22;512.80;2380.80
16491;DHT22;8356;51.214;3.270;2022-07-06T07:23:48;537.70;2406.40
16491;DHT22;8356;51.214;3.270;2022-07-06T07:26:15;537.80;2406.40
16491;DHT22;8356;51.214;3.270;2022-07-06T07:28:41;537.90;2406.40
16491;DHT22;8356;51.214;3.270;2022-07-06T07:31:06;538.00;2406.40
16491;DHT22;8356;51.214;3.270;2022-07-06T07:33:32;538.10;2406.40
16491;DHT22;8356;51.214;3.270;2022-07-06T07:35:58;538.10;2406.40
16491;DHT22;8356;51.214;3.270;2022-07-06T07:38:23;538.30;2406.40
16491;DHT22;8356;51.214;3.270;2022-07-06T07:40:49;538.40;2406.40
16491;DHT22;8356;51.214;3.270;2022-07-06T07:43:14;563.20;2432.00
16491;DHT22;8356;51.214;3.270;2022-07-06T07:45:40;563.40;2432.00
16491;DHT22;8356;51.214;3.270;2022-07-06T07:48:06;563.40;2432.00
16491;DHT22;8356;51.214;3.270;2022-07-06T07:50:32;563.50;2432.00
16491;DHT22;8356;51.214;3.270;2022-07-06T07:52:57;563.50;2432.00
16491;DHT22;8356;51.214;3.270;2022-07-06T07:55:23;563.60;2432.00
16491;DHT22;8356;51.214;3.270;2022-07-06T07:57:48;563.70;2432.00
16491;DHT22;8356;51.214;3.270;2022-07-06T08:00:14;563.90;2432.00
16491;DHT22;8356;51.214;3.270;2022-07-06T08:02:40;588.80;2432.00
16491;DHT22;8356;51.214;3.270;2022-07-06T08:05:06;589.00;2432.00
16491;DHT22;8356;51.214;3.270;2022-07-06T08:07:32;589.20;2432.00
16491;DHT22;8356;51.214;3.270;2022-07-06T08:09:57;589.30;2432.00
16491;DHT22;8356;51.214;3.270;2022-07-06T08:12:23;589.50;2432.00
16491;DHT22;8356;51.214;3.270;2022-07-06T08:14:49;589.20;2432.00
16491;DHT22;8356;51.214;3.270;2022-07-06T08:17:14;589.00;2432.00
16491;DHT22;8356;51.214;3.270;2022-07-06T08:19:40;588.90;2432.00
16491;DHT22;8356;51.214;3.270;2022-07-06T08:22:05;564.00;2432.00
16491;DHT22;8356;51.214;3.270;2022-07-06T08:24:35;563.80;2432.00
16491;DHT22;8356;51.214;3.270;2022-07-06T08:27:01;563.70;2432.00
16491;DHT22;8356;51.214;3.270;2022-07-06T08:29:27;563.50;2432.00
16491;DHT22;8356;51.214;3.270;2022-07-06T08:31:53;563.40;2432.00
16491;DHT22;8356;51.214;3.270;2022-07-06T08:34:18;563.40;2432.00
16491;DHT22;8356;51.214;3.270;2022-07-06T08:36:44;563.50;2432.00
16491;DHT22;8356;51.214;3.270;2022-07-06T08:39:10;563.70;2432.00
16491;DHT22;8356;51.214;3.270;2022-07-06T08:41:36;564.00;2432.00
16491;DHT22;8356;51.214;3.270;2022-07-06T08:44:04;588.90;2432.00
16491;DHT22;8356;51.214;3.270;2022-07-06T08:46:31;589.10;2432.00
16491;DHT22;8356;51.214;3.270;2022-07-06T08:48:57;589.30;2432.00
16491;DHT22;8356;51.214;3.270;2022-07-06T08:51:24;589.40;2432.00
16491;DHT22;8356;51.214;3.270;2022-07-06T08:53:51;589.20;2432.00
16491;DHT22;8356;51.214;3.270;2022-07-06T08:56:18;589.40;2432.00
16491;DHT22;8356;51.214;3.270;2022-07-06T08:58:44;589.30;2432.00
16491;DHT22;8356;51.214;3.270;2022-07-06T09:01:10;589.20;2432.00
16491;DHT22;8356;51.214;3.270;2022-07-06T09:03:36;589.30;2432.00
16491;DHT22;8356;51.214;3.270;2022-07-06T09:06:04;589.30;2432.00
16491;DHT22;8356;51.214;3.270;2022-07-06T09:08:32;589.30;2432.00
16491;DHT22;8356;51.214;3.270;2022-07-06T09:10:58;589.30;2432.00
16491;DHT22;8356;51.214;3.270;2022-07-06T09:13:24;589.30;2432.00
16491;DHT22;8356;51.214;3.270;2022-07-06T09:15:49;589.30;2432.00
16491;DHT22;8356;51.214;3.270;2022-07-06T09:18:15;589.30;2432.00
16491;DHT22;8356;51.214;3.270;2022-07-06T09:20:41;589.30;2432.00
16491;DHT22;8356;51.214;3.270;2022-07-06T09:23:07;589.30;2432.00
16491;DHT22;8356;51.214;3.270;2022-07-06T09:25:34;589.10;2432.00
16491;DHT22;8356;51.214;3.270;2022-07-06T09:28:00;589.00;2432.00
16491;DHT22;8356;51.214;3.270;2022-07-06T09:30:28;589.00;2432.00
16491;DHT22;8356;51.214;3.270;2022-07-06T09:32:58;589.00;2432.00
16491;DHT22;8356;51.214;3.270;2022-07-06T09:35:35;588.90;2432.00
16491;DHT22;8356;51.214;3.270;2022-07-06T09:38:06;588.90;2432.00
16491;DHT22;8356;51.214;3.270;2022-07-06T09:40:40;589.00;2432.00
16491;DHT22;8356;51.214;3.270;2022-07-06T09:43:17;589.20;2432.00
16491;DHT22;8356;51.214;3.270;2022-07-06T09:45:45;589.30;2432.00
16491;DHT22;8356;51.214;3.270;2022-07-06T09:48:17;589.40;2432.00
16491;DHT22;8356;51.214;3.270;2022-07-06T09:50:59;614.40;2432.00
16491;DHT22;8356;51.214;3.270;2022-07-06T09:53:28;614.50;2432.00
16491;DHT22;8356;51.214;3.270;2022-07-06T09:55:55;614.60;2432.00
16491;DHT22;8356;51.214;3.270;2022-07-06T09:58:22;614.60;2432.00
16491;DHT22;8356;51.214;3.270;2022-07-06T10:00:49;614.90;2432.00
16491;DHT22;8356;51.214;3.270;2022-07-06T10:03:16;640.10;2432.00
16491;DHT22;8356;51.214;3.270;2022-07-06T10:05:44;640.50;2432.00
16491;DHT22;8356;51.214;3.270;2022-07-06T10:08:13;640.60;2432.00
16491;DHT22;8356;51.214;3.270;2022-07-06T10:10:40;640.40;2432.00
16491;DHT22;8356;51.214;3.270;2022-07-06T10:13:07;640.20;2432.00
16491;DHT22;8356;51.214;3.270;2022-07-06T10:15:34;640.40;2432.00
16491;DHT22;8356;51.214;3.270;2022-07-06T10:18:02;640.80;2432.00
16491;DHT22;8356;51.214;3.270;2022-07-06T10:20:30;665.80;2432.00
16491;DHT22;8356;51.214;3.270;2022-07-06T10:22:59;665.90;2432.00
16491;DHT22;8356;51.214;3.270;2022-07-06T10:25:25;665.90;2432.00
16491;DHT22;8356;51.214;3.270;2022-07-06T10:27:52;691.20;2432.00
16491;DHT22;8356;51.214;3.270;2022-07-06T10:30:18;640.90;2432.00
16491;DHT22;8356;51.214;3.270;2022-07-06T10:32:47;640.90;2432.00
16491;DHT22;8356;51.214;3.270;2022-07-06T10:35:14;640.90;2432.00
16491;DHT22;8356;51.214;3.270;2022-07-06T10:37:40;640.50;2432.00
16491;DHT22;8356;51.214;3.270;2022-07-06T10:40:06;640.80;2432.00
16491;DHT22;8356;51.214;3.270;2022-07-06T10:53:14;666.20;2432.00
16491;DHT22;8356;51.214;3.270;2022-07-06T10:55:42;666.40;2432.00
16491;DHT22;8356;51.214;3.270;2022-07-06T10:58:08;691.50;2432.00
16491;DHT22;8356;51.214;3.270;2022-07-06T11:00:52;691.90;2432.00
16491;DHT22;8356;51.214;3.270;2022-07-06T11:06:20;717.10;2432.00
16491;DHT22;8356;51.214;3.270;2022-07-06T11:08:48;692.00;2432.00
16491;DHT22;8356;51.214;3.270;2022-07-06T11:11:17;691.50;2432.00
16491;DHT22;8356;51.214;3.270;2022-07-06T11:16:16;665.60;2432.00
16491;DHT22;8356;51.214;3.270;2022-07-06T11:18:47;666.40;2432.00
16491;DHT22;8356;51.214;3.270;2022-07-06T11:21:40;691.60;2432.00
16491;DHT22;8356;51.214;3.270;2022-07-06T11:24:05;691.90;2432.00
16491;DHT22;8356;51.214;3.270;2022-07-06T11:26:32;692.10;2432.00
16491;DHT22;8356;51.214;3.270;2022-07-06T11:28:59;691.60;2432.00
16491;DHT22;8356;51.214;3.270;2022-07-06T11:31:27;691.30;2432.00
16491;DHT22;8356;51.214;3.270;2022-07-06T11:33:52;666.30;2432.00
16491;DHT22;8356;51.214;3.270;2022-07-06T11:36:20;666.20;2432.00
16491;DHT22;8356;51.214;3.270;2022-07-06T11:38:48;666.40;2432.00
16491;DHT22;8356;51.214;3.270;2022-07-06T11:41:14;666.50;2432.00
16491;DHT22;8356;51.214;3.270;2022-07-06T11:43:42;691.70;2432.00
16491;DHT22;8356;51.214;3.270;2022-07-06T11:46:31;692.10;2432.00
16491;DHT22;8356;51.214;3.270;2022-07-06T11:49:03;716.80;2432.00
16491;DHT22;8356;51.214;3.270;2022-07-06T11:51:30;717.00;2432.00
16491;DHT22;8356;51.214;3.270;2022-07-06T11:53:58;717.00;2432.00
16491;DHT22;8356;51.214;3.270;2022-07-06T11:56:28;717.20;2432.00
16491;DHT22;8356;51.214;3.270;2022-07-06T11:58:57;717.20;2432.00
16491;DHT22;8356;51.214;3.270;2022-07-06T12:01:24;717.00;2432.00
16491;DHT22;8356;51.214;3.270;2022-07-06T12:03:51;717.00;2432.00
16491;DHT22;8356;51.214;3.270;2022-07-06T12:06:22;716.90;2432.00
16491;DHT22;8356;51.214;3.270;2022-07-06T12:08:56;716.80;2432.00
16491;DHT22;8356;51.214;3.270;2022-07-06T12:11:26;691.90;2432.00
16491;DHT22;8356;51.214;3.270;2022-07-06T12:13:56;691.20;2432.00
16491;DHT22;8356;51.214;3.270;2022-07-06T12:16:29;666.30;2432.00
16491;DHT22;8356;51.214;3.270;2022-07-06T12:18:55;666.50;2432.00
16491;DHT22;8356;51.214;3.270;2022-07-06T12:21:20;666.20;2432.00
16491;DHT22;8356;51.214;3.270;2022-07-06T12:23:51;666.30;2432.00
16491;DHT22;8356;51.214;3.270;2022-07-06T12:26:19;691.50;2432.00
16491;DHT22;8356;51.214;3.270;2022-07-06T12:28:46;691.30;2432.00
16491;DHT22;8356;51.214;3.270;2022-07-06T12:31:34;691.50;2432.00
16491;DHT22;8356;51.214;3.270;2022-07-06T12:34:00;691.50;2432.00
16491;DHT22;8356;51.214;3.270;2022-07-06T12:36:26;691.40;2432.00
16491;DHT22;8356;51.214;3.270;2022-07-06T12:38:52;691.30;2432.00
16491;DHT22;8356;51.214;3.270;2022-07-06T12:41:35;691.20;2432.00
16491;DHT22;8356;51.214;3.270;2022-07-06T12:44:04;691.20;2432.00
16491;DHT22;8356;51.214;3.270;2022-07-06T12:46:32;691.50;2432.00
16491;DHT22;8356;51.214;3.270;2022-07-06T12:48:59;691.60;2432.00
16491;DHT22;8356;51.214;3.270;2022-07-06T12:51:25;691.60;2432.00
16491;DHT22;8356;51.214;3.270;2022-07-06T12:53:51;691.30;2432.00
16491;DHT22;8356;51.214;3.270;2022-07-06T12:56:17;666.50;2432.00
16491;DHT22;8356;51.214;3.270;2022-07-06T12:58:59;666.50;2432.00
16491;DHT22;8356;51.214;3.270;2022-07-06T13:01:25;691.40;2432.00
16491;DHT22;8356;51.214;3.270;2022-07-06T13:03:56;691.40;2432.00
16491;DHT22;8356;51.214;3.270;2022-07-06T13:06:35;691.50;2432.00
16491;DHT22;8356;51.214;3.270;2022-07-06T13:09:02;691.70;2432.00
16491;DHT22;8356;51.214;3.270;2022-07-06T13:11:28;691.60;2432.00
16491;DHT22;8356;51.214;3.270;2022-07-06T13:13:53;691.40;2432.00
16491;DHT22;8356;51.214;3.270;2022-07-06T13:16:19;691.30;2432.00
16491;DHT22;8356;51.214;3.270;2022-07-06T13:18:45;691.40;2432.00
16491;DHT22;8356;51.214;3.270;2022-07-06T13:21:10;691.50;2432.00
16491;DHT22;8356;51.214;3.270;2022-07-06T13:23:36;691.60;2432.00
16491;DHT22;8356;51.214;3.270;2022-07-06T13:26:02;691.60;2432.00
16491;DHT22;8356;51.214;3.270;2022-07-06T13:28:28;691.70;2432.00
16491;DHT22;8356;51.214;3.270;2022-07-06T13:30:53;691.90;2432.00
16491;DHT22;8356;51.214;3.270;2022-07-06T13:33:19;691.70;2432.00
16491;DHT22;8356;51.214;3.270;2022-07-06T13:35:45;691.60;2432.00
16491;DHT22;8356;51.214;3.270;2022-07-06T13:38:10;691.40;2432.00
16491;DHT22;8356;51.214;3.270;2022-07-06T13:40:36;691.20;2432.00
16491;DHT22;8356;51.214;3.270;2022-07-06T13:43:02;666.20;2432.00
16491;DHT22;8356;51.214;3.270;2022-07-06T13:45:27;666.00;2432.00
16491;DHT22;8356;51.214;3.270;2022-07-06T13:47:53;665.90;2432.00
16491;DHT22;8356;51.214;3.270;2022-07-06T13:50:18;665.70;2432.00
16491;DHT22;8356;51.214;3.270;2022-07-06T13:52:44;640.90;2432.00
16491;DHT22;8356;51.214;3.270;2022-07-06T13:55:10;640.80;2432.00
16491;DHT22;8356;51.214;3.270;2022-07-06T13:57:35;640.80;2432.00
16491;DHT22;8356;51.214;3.270;2022-07-06T14:00:02;640.60;2432.00
16491;DHT22;8356;51.214;3.270;2022-07-06T14:02:28;665.60;2432.00
16491;DHT22;8356;51.214;3.270;2022-07-06T14:04:53;665.70;2432.00
16491;DHT22;8356;51.214;3.270;2022-07-06T14:07:19;665.80;2432.00
16491;DHT22;8356;51.214;3.270;2022-07-06T14:09:45;640.90;2432.00
16491;DHT22;8356;51.214;3.270;2022-07-06T14:12:10;640.80;2432.00
16491;DHT22;8356;51.214;3.270;2022-07-06T14:14:36;640.50;2432.00
16491;DHT22;8356;51.214;3.270;2022-07-06T14:17:02;640.40;2432.00
16491;DHT22;8356;51.214;3.270;2022-07-06T14:19:28;640.30;2432.00
16491;DHT22;8356;51.214;3.270;2022-07-06T14:21:54;640.60;2432.00
16491;DHT22;8356;51.214;3.270;2022-07-06T14:24:20;640.50;2432.00
16491;DHT22;8356;51.214;3.270;2022-07-06T14:26:46;640.30;2432.00
16491;DHT22;8356;51.214;3.270;2022-07-06T14:29:11;640.50;2432.00
16491;DHT22;8356;51.214;3.270;2022-07-06T14:31:37;640.30;2432.00
16491;DHT22;8356;51.214;3.270;2022-07-06T14:34:02;640.30;2432.00
16491;DHT22;8356;51.214;3.270;2022-07-06T14:36:28;640.30;2432.00
16491;DHT22;8356;51.214;3.270;2022-07-06T14:38:54;640.20;2432.00
16491;DHT22;8356;51.214;3.270;2022-07-06T14:41:19;640.30;2432.00
16491;DHT22;8356;51.214;3.270;2022-07-06T14:43:45;640.20;2432.00
16491;DHT22;8356;51.214;3.270;2022-07-06T14:46:11;640.20;2432.00
16491;DHT22;8356;51.214;3.270;2022-07-06T14:48:36;640.20;2432.00
16491;DHT22;8356;51.214;3.270;2022-07-06T14:51:02;640.00;2432.00
16491;DHT22;8356;51.214;3.270;2022-07-06T14:53:28;615.30;2432.00
16491;DHT22;8356;51.214;3.270;2022-07-06T14:55:53;640.00;2432.00
16491;DHT22;8356;51.214;3.270;2022-07-06T14:58:19;640.10;2432.00
16491;DHT22;8356;51.214;3.270;2022-07-06T15:00:45;640.10;2432.00
16491;DHT22;8356;51.214;3.270;2022-07-06T15:03:11;640.00;2432.00
16491;DHT22;8356;51.214;3.270;2022-07-06T15:05:37;640.20;2432.00
16491;DHT22;8356;51.214;3.270;2022-07-06T15:08:04;640.30;2432.00
16491;DHT22;8356;51.214;3.270;2022-07-06T15:10:30;640.50;2432.00
16491;DHT22;8356;51.214;3.270;2022-07-06T15:12:56;640.30;2432.00
16491;DHT22;8356;51.214;3.270;2022-07-06T15:15:21;640.10;2432.00
16491;DHT22;8356;51.214;3.270;2022-07-06T15:17:47;640.00;2432.00